createdAt,value
2023-03-12T00:03:10.562Z,2.21
2023-03-12T00:08:32.398Z,2.27
2023-03-12T00:13:57.048Z,2.18
2023-03-12T00:19:18.847Z,2.18
2023-03-12T00:24:40.566Z,2.17
2023-03-12T00:30:02.886Z,2.17
2023-03-12T00:35:25.635Z,2.05
2023-03-12T00:40:47.635Z,2.38
2023-03-12T00:46:09.366Z,2.30
2023-03-12T00:51:31.052Z,2.11
2023-03-12T00:56:52.735Z,2.08
2023-03-12T01:02:14.436Z,2.11
2023-03-12T01:07:36.336Z,2.05
2023-03-12T01:12:58.315Z,2.04
2023-03-12T01:18:20.291Z,2.14
2023-03-12T01:23:42.046Z,1.95
2023-03-12T01:29:03.784Z,1.97
2023-03-12T01:34:25.556Z,2.11
2023-03-12T01:39:47.286Z,2.19
2023-03-12T01:45:46.701Z,2.24
2023-03-12T01:51:12.313Z,2.37
2023-03-12T01:56:36.592Z,2.23
2023-03-12T02:01:59.600Z,2.39
2023-03-12T02:07:21.346Z,2.28
2023-03-12T02:12:43.305Z,2.45
2023-03-12T02:18:07.650Z,2.42
2023-03-12T02:23:52.321Z,2.35
2023-03-12T02:29:14.533Z,2.22
2023-03-12T02:34:36.326Z,2.27
2023-03-12T02:40:08.899Z,2.40
2023-03-12T02:45:31.097Z,2.16
2023-03-12T02:50:52.808Z,2.30
2023-03-12T02:56:14.571Z,2.15
2023-03-12T03:01:36.701Z,2.12
2023-03-12T03:06:58.775Z,2.16
2023-03-12T03:12:20.600Z,2.13
2023-03-12T03:17:42.316Z,2.13
2023-03-12T03:23:04.584Z,1.98
2023-03-12T03:28:28.156Z,2.05
2023-03-12T03:33:50.190Z,2.29
2023-03-12T03:39:11.968Z,2.50
2023-03-12T03:44:34.796Z,2.41
2023-03-12T03:49:56.534Z,2.49
2023-03-12T03:55:18.545Z,2.52
2023-03-12T04:00:40.266Z,2.46
2023-03-12T04:06:05.458Z,2.66
2023-03-12T04:11:27.486Z,2.55
2023-03-12T04:16:49.280Z,2.82
2023-03-12T04:22:11.408Z,2.80
2023-03-12T04:27:34.313Z,2.92
2023-03-12T04:32:56.098Z,2.90
2023-03-12T04:38:18.302Z,2.92
2023-03-12T04:43:40.239Z,2.84
2023-03-12T04:49:02.743Z,2.78
2023-03-12T04:54:24.576Z,2.79
2023-03-12T04:59:48.076Z,2.93
2023-03-12T05:05:11.607Z,2.93
2023-03-12T05:10:33.389Z,2.93
2023-03-12T05:15:55.376Z,2.93
2023-03-12T05:21:19.573Z,2.96
2023-03-12T05:26:41.407Z,3.03
2023-03-12T05:32:03.632Z,3.06
2023-03-12T05:37:25.454Z,3.21
2023-03-12T05:42:47.175Z,3.11
2023-03-12T05:48:08.908Z,3.06
2023-03-12T05:53:30.716Z,3.11
2023-03-12T05:58:52.509Z,3.23
2023-03-12T06:04:14.349Z,3.21
2023-03-12T06:09:36.179Z,3.11
2023-03-12T06:14:58.272Z,3.05
2023-03-12T06:20:20.100Z,2.93
2023-03-12T06:25:45.021Z,2.89
2023-03-12T06:31:07.908Z,3.03
2023-03-12T06:36:29.859Z,3.09
2023-03-12T06:41:51.566Z,3.12
2023-03-12T06:47:13.631Z,3.00
2023-03-12T06:52:36.061Z,3.15
2023-03-12T06:57:57.750Z,3.16
2023-03-12T07:03:19.925Z,3.26
2023-03-12T07:08:42.048Z,3.48
2023-03-12T07:14:03.806Z,3.37
2023-03-12T07:19:25.564Z,3.50
2023-03-12T07:24:47.276Z,3.46
2023-03-12T07:30:09.703Z,3.46
2023-03-12T07:35:32.852Z,3.64
2023-03-12T07:40:57.125Z,3.66
2023-03-12T07:46:18.929Z,3.80
2023-03-12T07:51:40.664Z,3.90
2023-03-12T07:57:02.504Z,3.98
2023-03-12T08:02:24.363Z,4.30
2023-03-12T08:07:46.904Z,4.46
2023-03-12T08:13:08.634Z,4.36
2023-03-12T08:18:30.435Z,4.48
2023-03-12T08:23:52.189Z,4.44
2023-03-12T08:29:14.264Z,4.45
2023-03-12T08:34:36.559Z,4.61
2023-03-12T08:39:58.932Z,4.59
2023-03-12T08:45:20.663Z,4.51
2023-03-12T08:50:42.397Z,4.43
2023-03-12T08:56:04.970Z,4.54
2023-03-12T09:01:26.725Z,4.64
2023-03-12T09:06:48.505Z,4.64
2023-03-12T09:12:10.832Z,4.58
2023-03-12T09:17:32.567Z,4.91
2023-03-12T09:22:54.262Z,4.96
2023-03-12T09:28:16.760Z,5.12
2023-03-12T09:33:39.490Z,5.23
2023-03-12T09:39:02.353Z,5.30
2023-03-12T09:44:44.436Z,5.42
2023-03-12T09:50:20.188Z,5.59
2023-03-12T09:55:45.113Z,5.72
2023-03-12T10:01:39.260Z,5.88
2023-03-12T10:07:12.603Z,6.03
2023-03-12T10:12:51.981Z,6.24
2023-03-12T10:18:24.317Z,6.40
2023-03-12T10:24:08.481Z,6.62
2023-03-12T10:29:35.679Z,6.72
2023-03-12T10:35:04.310Z,6.85
2023-03-12T10:40:29.429Z,7.01
2023-03-12T10:46:16.781Z,7.22
2023-03-12T10:52:20.095Z,7.35
2023-03-12T10:57:42.909Z,7.55
2023-03-12T11:03:20.680Z,7.81
2023-03-12T11:08:43.111Z,7.97
2023-03-12T11:14:12.984Z,8.09
2023-03-12T11:19:35.462Z,8.20
2023-03-12T11:25:07.418Z,8.38
2023-03-12T11:30:57.300Z,8.53
2023-03-12T11:36:35.992Z,8.70
2023-03-12T11:42:21.410Z,8.81
2023-03-12T11:48:05.098Z,8.88
2023-03-12T11:54:00.897Z,8.96
2023-03-12T11:59:39.012Z,9.06
2023-03-12T12:05:22.859Z,9.17
2023-03-12T12:11:11.377Z,9.26
2023-03-12T12:16:40.268Z,9.34
2023-03-12T12:22:41.760Z,9.46
2023-03-12T12:28:12.820Z,9.58
2023-03-12T12:33:40.664Z,9.75
2023-03-12T12:39:18.804Z,9.79
2023-03-12T12:44:53.558Z,9.78
2023-03-12T12:50:22.286Z,9.82
2023-03-12T12:55:55.647Z,9.88
2023-03-12T13:01:18.252Z,9.91
2023-03-12T13:06:58.144Z,9.92
2023-03-12T13:12:41.985Z,9.93
2023-03-12T13:18:24.216Z,9.95
2023-03-12T13:24:02.958Z,9.98
2023-03-12T13:29:32.850Z,10.02
2023-03-12T13:34:57.776Z,10.00
2023-03-12T13:40:31.545Z,10.02
2023-03-12T13:46:06.764Z,10.13
2023-03-12T13:51:28.880Z,10.24
2023-03-12T13:57:04.423Z,10.48
2023-03-12T14:02:34.666Z,10.57
2023-03-12T14:08:24.663Z,10.61
2023-03-12T14:14:25.443Z,10.62
2023-03-12T14:19:52.523Z,10.58
2023-03-12T14:25:21.905Z,10.54
2023-03-12T14:30:57.245Z,10.52
2023-03-12T14:36:22.691Z,10.46
2023-03-12T14:41:49.077Z,10.48
2023-03-12T14:47:17.238Z,10.52
2023-03-12T14:52:39.026Z,10.72
2023-03-12T14:58:17.018Z,10.87
2023-03-12T15:03:44.274Z,10.92
2023-03-12T15:09:07.510Z,11.00
2023-03-12T15:14:34.845Z,11.06
2023-03-12T15:19:57.324Z,11.11
2023-03-12T15:25:24.644Z,11.10
2023-03-12T15:30:46.468Z,11.04
2023-03-12T15:36:17.479Z,10.97
2023-03-12T15:41:48.683Z,10.90
2023-03-12T15:47:15.043Z,10.86
2023-03-12T15:52:36.919Z,10.85
2023-03-12T15:57:59.806Z,10.84
2023-03-12T16:03:22.078Z,10.82
2023-03-12T16:08:46.699Z,10.83
2023-03-12T16:14:25.723Z,10.81
2023-03-12T16:19:47.511Z,10.80
2023-03-12T16:25:11.979Z,10.79
2023-03-12T16:30:36.178Z,10.78
2023-03-12T16:35:57.975Z,10.82
2023-03-12T16:41:20.045Z,10.76
2023-03-12T16:46:41.832Z,10.77
2023-03-12T16:52:16.176Z,10.74
2023-03-12T16:57:41.600Z,10.70
2023-03-12T17:03:05.933Z,10.64
2023-03-12T17:08:27.818Z,10.67
2023-03-12T17:13:57.485Z,10.60
2023-03-12T17:19:19.494Z,10.53
2023-03-12T17:24:41.320Z,10.52
2023-03-12T17:30:03.314Z,10.40
2023-03-12T17:35:25.107Z,10.38
2023-03-12T17:40:46.858Z,10.38
2023-03-12T17:46:10.211Z,10.28
2023-03-12T17:51:31.936Z,10.24
2023-03-12T17:56:53.666Z,10.22
2023-03-12T18:02:15.463Z,10.21
2023-03-12T18:07:38.077Z,10.21
2023-03-12T18:12:59.884Z,10.17
2023-03-12T18:18:22.771Z,10.05
2023-03-12T18:23:46.045Z,10.05
2023-03-12T18:29:07.912Z,10.04
2023-03-12T18:34:29.921Z,10.08
2023-03-12T18:39:51.674Z,10.00
2023-03-12T18:45:13.424Z,9.99
2023-03-12T18:50:35.184Z,10.00
2023-03-12T18:55:58.394Z,10.02
2023-03-12T19:01:20.673Z,9.97
2023-03-12T19:06:50.702Z,9.96
2023-03-12T19:12:13.105Z,9.97
2023-03-12T19:17:34.981Z,9.84
2023-03-12T19:22:56.729Z,9.79
2023-03-12T19:28:18.564Z,9.79
2023-03-12T19:33:41.564Z,9.79
2023-03-12T19:39:06.741Z,9.70
2023-03-12T19:44:36.227Z,9.63
2023-03-12T19:49:57.967Z,9.56
2023-03-12T19:55:19.889Z,9.52
2023-03-12T20:00:42.697Z,9.47
2023-03-12T20:06:08.013Z,9.50
2023-03-12T20:11:29.942Z,9.42
2023-03-12T20:16:52.380Z,9.39
2023-03-12T20:22:14.572Z,9.38
2023-03-12T20:27:36.769Z,9.39
2023-03-12T20:32:58.831Z,9.34
2023-03-12T20:38:20.595Z,9.23
2023-03-12T20:43:42.947Z,9.30
2023-03-12T20:49:04.773Z,9.27
2023-03-12T20:54:27.441Z,9.37
2023-03-12T20:59:49.224Z,9.27
2023-03-12T21:05:11.468Z,9.29
2023-03-12T21:10:37.227Z,9.30
2023-03-12T21:15:59.233Z,9.16
2023-03-12T21:21:20.999Z,9.09
2023-03-12T21:26:42.814Z,9.14
2023-03-12T21:32:04.729Z,9.11
2023-03-12T21:37:26.840Z,9.12
2023-03-12T21:42:48.621Z,9.16
2023-03-12T21:48:10.360Z,9.14
2023-03-12T21:53:32.163Z,9.13
2023-03-12T21:58:58.132Z,9.09
2023-03-12T22:04:20.699Z,9.06
2023-03-12T22:09:42.406Z,8.97
2023-03-12T22:15:06.401Z,9.01
2023-03-12T22:20:28.170Z,9.02
2023-03-12T22:25:50.312Z,9.00
2023-03-12T22:31:12.112Z,8.96
2023-03-12T22:36:33.922Z,8.95
2023-03-12T22:41:55.693Z,8.92
2023-03-12T22:47:17.446Z,8.84
2023-03-12T22:52:39.575Z,8.87
2023-03-12T22:58:01.265Z,8.92
2023-03-12T23:03:22.988Z,8.93
2023-03-12T23:08:47.462Z,8.83
2023-03-12T23:14:09.586Z,8.82
2023-03-12T23:19:34.451Z,8.89
2023-03-12T23:24:56.187Z,8.76
2023-03-12T23:30:18.009Z,8.62
2023-03-12T23:35:39.776Z,8.43
2023-03-12T23:41:07.107Z,8.36
2023-03-12T23:46:29.521Z,8.47
2023-03-12T23:51:51.265Z,8.32
2023-03-12T23:57:13.045Z,8.31
